createdAt,value
2023-04-04T00:01:13.386Z,99.90
2023-04-04T00:03:43.181Z,99.90
2023-04-04T00:06:12.606Z,99.90
2023-04-04T00:08:41.546Z,99.90
2023-04-04T00:11:11.284Z,99.90
2023-04-04T00:13:39.962Z,99.90
2023-04-04T00:16:11.849Z,99.90
2023-04-04T00:18:41.419Z,99.90
2023-04-04T00:21:10.243Z,99.90
2023-04-04T00:23:39.067Z,99.90
2023-04-04T00:26:11.797Z,99.90
2023-04-04T00:28:42.792Z,99.90
2023-04-04T00:31:12.916Z,99.90
2023-04-04T00:33:41.799Z,99.90
2023-04-04T00:36:11.707Z,99.90
2023-04-04T00:38:40.974Z,99.90
2023-04-04T00:41:11.506Z,99.90
2023-04-04T00:43:42.724Z,99.90
2023-04-04T00:46:15.358Z,99.90
2023-04-04T00:48:45.403Z,99.90
2023-04-04T00:51:14.953Z,99.90
2023-04-04T00:53:48.980Z,99.90
2023-04-04T00:56:18.252Z,99.90
2023-04-04T00:58:48.666Z,99.90
2023-04-04T01:01:19.478Z,99.90
2023-04-04T01:03:48.802Z,99.90
2023-04-04T01:06:18.274Z,99.90
2023-04-04T01:08:48.589Z,99.90
2023-04-04T01:11:18.346Z,99.90
2023-04-04T01:13:49.397Z,99.90
2023-04-04T01:16:21.670Z,99.90
2023-04-04T01:18:52.278Z,99.90
2023-04-04T01:21:24.037Z,99.90
2023-04-04T01:24:01.599Z,99.90
2023-04-04T01:26:39.752Z,99.90
2023-04-04T01:29:09.543Z,99.90
2023-04-04T01:31:43.956Z,99.90
2023-04-04T01:34:21.855Z,99.90
2023-04-04T01:37:03.572Z,99.90
2023-04-04T01:39:44.953Z,99.90
2023-04-04T01:42:20.502Z,99.90
2023-04-04T01:44:56.180Z,99.90
2023-04-04T01:47:31.395Z,99.90
2023-04-04T01:50:00.675Z,99.90
2023-04-04T01:52:30.413Z,99.90
2023-04-04T01:54:59.494Z,99.90
2023-04-04T01:57:29.905Z,99.90
2023-04-04T01:59:59.240Z,99.90
2023-04-04T02:02:28.802Z,99.90
2023-04-04T02:04:58.289Z,99.90
2023-04-04T02:07:28.140Z,99.90
2023-04-04T02:09:57.996Z,99.90
2023-04-04T02:12:28.276Z,99.90
2023-04-04T02:14:57.422Z,99.90
2023-04-04T02:17:26.359Z,99.90
2023-04-04T02:19:55.277Z,99.90
2023-04-04T02:22:23.741Z,99.90
2023-04-04T02:24:53.758Z,99.90
2023-04-04T02:27:23.426Z,99.90
2023-04-04T02:29:55.546Z,99.90
2023-04-04T02:32:25.113Z,99.90
2023-04-04T02:34:54.508Z,99.90
2023-04-04T02:37:24.392Z,99.90
2023-04-04T02:39:55.530Z,99.90
2023-04-04T02:42:25.126Z,99.90
2023-04-04T02:44:55.118Z,99.90
2023-04-04T02:47:23.908Z,99.90
2023-04-04T02:49:52.276Z,99.90
2023-04-04T02:52:22.748Z,99.90
2023-04-04T02:54:52.637Z,99.90
2023-04-04T02:57:32.376Z,99.90
2023-04-04T03:00:04.431Z,99.90
2023-04-04T03:02:33.742Z,99.90
2023-04-04T03:05:03.886Z,99.90
2023-04-04T03:07:32.311Z,99.90
2023-04-04T03:10:01.301Z,99.90
2023-04-04T03:12:30.102Z,99.90
2023-04-04T03:14:59.372Z,99.90
2023-04-04T03:17:30.012Z,99.90
2023-04-04T03:19:58.605Z,99.90
2023-04-04T03:22:27.810Z,99.90
2023-04-04T03:24:56.421Z,99.90
2023-04-04T03:27:24.723Z,99.90
2023-04-04T03:29:53.914Z,99.90
2023-04-04T03:32:22.571Z,99.90
2023-04-04T03:34:53.980Z,99.90
2023-04-04T03:37:23.658Z,99.90
2023-04-04T03:39:53.429Z,99.90
2023-04-04T03:42:23.326Z,99.90
2023-04-04T03:44:53.690Z,99.90
2023-04-04T03:47:32.376Z,99.90
2023-04-04T03:50:03.822Z,99.90
2023-04-04T03:52:40.838Z,99.90
2023-04-04T03:55:11.287Z,99.90
2023-04-04T03:57:42.101Z,99.90
2023-04-04T04:00:15.555Z,99.90
2023-04-04T04:02:47.039Z,99.90
2023-04-04T04:05:17.470Z,99.90
2023-04-04T04:07:47.979Z,99.90
2023-04-04T04:10:17.582Z,99.90
2023-04-04T04:12:47.776Z,99.90
2023-04-04T04:15:17.241Z,99.90
2023-04-04T04:17:46.993Z,99.90
2023-04-04T04:20:18.761Z,99.90
2023-04-04T04:22:54.112Z,99.90
2023-04-04T04:25:23.550Z,99.90
2023-04-04T04:28:00.779Z,99.90
2023-04-04T04:30:29.976Z,99.90
2023-04-04T04:32:59.614Z,99.90
2023-04-04T04:35:40.096Z,99.90
2023-04-04T04:38:11.134Z,99.90
2023-04-04T04:40:45.838Z,99.90
2023-04-04T04:43:21.628Z,99.90
2023-04-04T04:45:52.912Z,99.90
2023-04-04T04:48:22.715Z,99.90
2023-04-04T04:50:57.158Z,99.90
2023-04-04T06:08:54.380Z,99.90
2023-04-04T06:11:24.349Z,99.90
2023-04-04T06:13:56.867Z,99.90
2023-04-04T06:16:27.147Z,99.90
2023-04-04T06:18:56.361Z,99.90
2023-04-04T06:21:24.811Z,99.90
2023-04-04T06:23:56.889Z,99.90
2023-04-04T06:26:27.843Z,99.90
2023-04-04T06:28:57.467Z,99.90
2023-04-04T06:31:30.939Z,99.90
2023-04-04T06:34:05.959Z,99.90
2023-04-04T06:36:41.274Z,99.90
2023-04-04T06:39:12.121Z,99.90
2023-04-04T06:41:41.410Z,99.90
2023-04-04T06:44:10.788Z,99.90
2023-04-04T06:46:42.073Z,99.90
2023-04-04T06:49:12.044Z,99.90
2023-04-04T06:51:42.714Z,99.90
2023-04-04T06:54:13.414Z,99.90
2023-04-04T06:56:42.139Z,99.90
2023-04-04T06:59:12.678Z,99.90
2023-04-04T07:01:41.763Z,99.90
2023-04-04T07:04:11.363Z,99.90
2023-04-04T07:06:39.640Z,99.90
2023-04-04T07:09:18.544Z,99.90
2023-04-04T07:11:56.790Z,99.90
2023-04-04T07:14:26.410Z,99.90
2023-04-04T07:16:56.068Z,99.90
2023-04-04T07:19:28.558Z,99.90
2023-04-04T07:21:58.358Z,99.90
2023-04-04T07:24:26.843Z,99.90
2023-04-04T07:26:57.746Z,99.90
2023-04-04T07:29:27.898Z,99.90
2023-04-04T07:31:57.326Z,99.90
2023-04-04T07:34:27.156Z,99.90
2023-04-04T07:37:01.429Z,99.90
2023-04-04T07:39:32.077Z,99.90
2023-04-04T07:42:02.956Z,99.90
2023-04-04T07:44:31.804Z,99.90
2023-04-04T07:47:09.227Z,99.90
2023-04-04T07:49:39.003Z,99.90
2023-04-04T07:52:08.875Z,99.90
2023-04-04T07:54:40.897Z,99.90
2023-04-04T07:57:11.211Z,99.90
2023-04-04T07:59:40.425Z,99.90
2023-04-04T08:02:09.922Z,99.90
2023-04-04T08:04:39.017Z,99.90
2023-04-04T08:07:08.561Z,99.90
2023-04-04T08:09:37.721Z,99.90
2023-04-04T08:12:07.984Z,99.90
2023-04-04T08:14:38.542Z,99.90
2023-04-04T08:17:08.643Z,99.90
2023-04-04T08:19:37.939Z,99.90
2023-04-04T08:22:06.797Z,99.90
2023-04-04T08:24:37.274Z,99.90
2023-04-04T08:27:06.893Z,99.90
2023-04-04T08:29:37.482Z,99.90
2023-04-04T08:32:06.837Z,99.90
2023-04-04T08:34:35.321Z,99.90
2023-04-04T08:37:04.610Z,99.90
2023-04-04T08:39:33.538Z,99.90
2023-04-04T08:42:06.279Z,99.90
2023-04-04T08:44:38.816Z,99.90
2023-04-04T08:47:11.145Z,99.90
2023-04-04T08:49:45.129Z,99.90
2023-04-04T08:52:18.650Z,99.90
2023-04-04T08:54:51.004Z,99.90
2023-04-04T08:57:20.562Z,99.90
2023-04-04T08:59:51.087Z,99.90
2023-04-04T09:02:35.086Z,99.90
2023-04-04T09:05:07.151Z,99.90
2023-04-04T09:07:38.764Z,99.90
2023-04-04T09:10:12.413Z,99.90
2023-04-04T09:12:44.289Z,99.90
2023-04-04T09:15:16.839Z,99.90
2023-04-04T09:17:45.658Z,99.90
2023-04-04T09:20:41.208Z,99.90
2023-04-04T09:23:13.920Z,99.90
2023-04-04T09:28:22.705Z,99.90
2023-04-04T09:30:53.945Z,99.90
2023-04-04T09:33:25.123Z,99.90
2023-04-04T09:35:59.480Z,99.90
2023-04-04T09:38:31.477Z,99.90
2023-04-04T09:41:00.626Z,99.90
2023-04-04T09:43:33.910Z,99.90
2023-04-04T09:46:08.008Z,99.90
2023-04-04T09:48:37.868Z,99.90
2023-04-04T09:51:08.932Z,99.90
2023-04-04T09:53:39.829Z,99.90
2023-04-04T09:56:10.445Z,99.90
2023-04-04T09:58:52.458Z,99.90
2023-04-04T10:01:27.333Z,99.90
2023-04-04T10:03:59.243Z,99.90
2023-04-04T10:06:28.910Z,99.90
2023-04-04T10:08:59.416Z,99.90
2023-04-04T10:11:33.890Z,99.90
2023-04-04T10:14:05.225Z,99.90
2023-04-04T10:16:37.983Z,99.90
2023-04-04T10:19:09.698Z,99.90
2023-04-04T10:21:38.732Z,99.90
2023-04-04T10:24:10.589Z,99.90
2023-04-04T10:26:39.796Z,99.90
2023-04-04T10:29:08.943Z,99.90
2023-04-04T10:31:44.728Z,99.90
2023-04-04T10:34:26.132Z,99.90
2023-04-04T10:37:10.075Z,99.90
2023-04-04T10:39:50.417Z,99.90
2023-04-04T10:42:21.883Z,99.90
2023-04-04T10:44:53.328Z,99.90
2023-04-04T10:47:26.580Z,99.90
2023-04-04T10:49:57.158Z,99.90
2023-04-04T10:52:30.992Z,99.90
2023-04-04T10:55:04.653Z,99.90
2023-04-04T10:57:34.858Z,99.90
2023-04-04T11:00:08.291Z,99.90
2023-04-04T11:02:55.949Z,99.90
2023-04-04T11:05:28.317Z,99.90
2023-04-04T11:10:35.461Z,99.90
2023-04-04T11:13:13.684Z,99.90
2023-04-04T11:15:58.017Z,96.80
2023-04-04T11:18:49.939Z,96.60
2023-04-04T11:21:24.187Z,96.50
2023-04-04T11:24:16.279Z,95.60
2023-04-04T11:26:47.238Z,94.30
2023-04-04T11:29:44.779Z,93.40
2023-04-04T11:32:36.070Z,91.90
2023-04-04T11:35:07.152Z,91.30
2023-04-04T11:37:45.629Z,90.90
2023-04-04T11:40:15.617Z,87.70
2023-04-04T11:42:46.129Z,89.60
2023-04-04T11:45:21.638Z,86.20
2023-04-04T11:47:52.992Z,84.90
2023-04-04T11:50:22.250Z,85.80
2023-04-04T11:52:53.977Z,79.40
2023-04-04T11:55:23.720Z,79.10
2023-04-04T11:57:55.868Z,80.10
2023-04-04T12:00:33.174Z,77.20
2023-04-04T12:03:03.815Z,76.30
2023-04-04T12:05:33.090Z,74.30
2023-04-04T12:08:03.621Z,72.80
2023-04-04T12:10:36.510Z,73.00
2023-04-04T12:13:09.707Z,68.90
2023-04-04T12:15:39.335Z,71.30
2023-04-04T12:18:22.443Z,65.90
2023-04-04T12:20:54.212Z,66.20
2023-04-04T12:23:24.497Z,66.60
2023-04-04T12:25:55.991Z,64.00
2023-04-04T12:28:27.317Z,63.70
2023-04-04T12:30:57.873Z,61.60
2023-04-04T12:33:28.491Z,63.80
2023-04-04T12:35:57.142Z,60.80
2023-04-04T12:38:27.028Z,63.00
2023-04-04T12:40:55.702Z,62.10
2023-04-04T12:43:24.193Z,59.70
2023-04-04T12:45:53.026Z,59.40
2023-04-04T12:48:29.939Z,59.00
2023-04-04T12:51:00.363Z,57.10
2023-04-04T12:53:32.998Z,56.70
2023-04-04T12:56:05.359Z,57.70
2023-04-04T12:58:37.492Z,57.50
2023-04-04T13:01:07.566Z,55.60
2023-04-04T13:03:38.527Z,56.10
2023-04-04T13:06:14.377Z,53.50
2023-04-04T13:08:52.933Z,54.60
2023-04-04T13:11:22.202Z,54.10
2023-04-04T13:14:02.231Z,53.70
2023-04-04T13:16:34.651Z,52.40
2023-04-04T13:19:06.920Z,53.00
2023-04-04T13:21:36.863Z,53.70
2023-04-04T13:24:05.946Z,53.10
2023-04-04T13:26:34.921Z,51.80
2023-04-04T13:29:03.796Z,52.50
2023-04-04T13:31:32.949Z,52.60
2023-04-04T13:34:03.553Z,51.90
2023-04-04T13:36:32.456Z,52.50
2023-04-04T13:39:01.358Z,50.20
2023-04-04T13:41:31.004Z,50.60
2023-04-04T13:43:59.251Z,51.10
2023-04-04T13:46:27.755Z,49.20
2023-04-04T13:48:56.874Z,48.90
2023-04-04T13:51:27.233Z,49.40
2023-04-04T13:53:56.522Z,49.30
2023-04-04T13:56:25.518Z,50.20
2023-04-04T13:58:54.436Z,50.40
2023-04-04T14:01:24.056Z,50.40
2023-04-04T14:03:52.705Z,49.40
2023-04-04T14:06:22.435Z,48.80
2023-04-04T14:08:53.495Z,48.20
2023-04-04T14:11:25.809Z,47.90
2023-04-04T14:13:54.529Z,48.00
2023-04-04T14:16:23.554Z,48.10
2023-04-04T14:28:10.049Z,48.00
2023-04-04T14:59:39.038Z,48.80
2023-04-04T16:26:14.854Z,71.30
2023-04-04T16:28:46.837Z,73.30
2023-04-04T16:31:17.023Z,72.50
2023-04-04T16:33:45.614Z,72.90
2023-04-04T16:36:15.630Z,72.90
2023-04-04T16:38:45.647Z,73.20
2023-04-04T16:41:15.729Z,73.30
2023-04-04T16:43:48.545Z,74.30
2023-04-04T16:46:17.807Z,75.00
2023-04-04T16:48:46.065Z,75.00
2023-04-04T16:51:15.579Z,74.90
2023-04-04T16:53:44.354Z,74.80
2023-04-04T16:56:16.245Z,74.90
2023-04-04T16:58:47.652Z,74.70
2023-04-04T17:01:18.680Z,75.60
2023-04-04T17:03:48.125Z,75.00
2023-04-04T17:06:17.127Z,74.90
2023-04-04T17:08:47.486Z,75.00
2023-04-04T17:11:19.063Z,75.50
2023-04-04T17:13:50.158Z,75.50
2023-04-04T17:16:19.070Z,75.90
2023-04-04T17:18:48.800Z,75.50
2023-04-04T17:21:18.217Z,75.00
2023-04-04T17:23:48.050Z,76.20
2023-04-04T17:26:20.594Z,75.90
2023-04-04T17:28:49.846Z,76.10
2023-04-04T17:31:18.874Z,76.10
2023-04-04T17:33:48.305Z,76.80
2023-04-04T17:36:16.691Z,76.90
2023-04-04T17:38:46.260Z,77.50
2023-04-04T17:41:14.840Z,78.20
2023-04-04T17:43:44.702Z,77.20
2023-04-04T17:46:13.994Z,77.80
2023-04-04T17:48:43.892Z,78.00
2023-04-04T17:51:13.896Z,78.50
2023-04-04T17:53:43.021Z,79.10
2023-04-04T17:56:13.141Z,79.20
2023-04-04T17:58:43.256Z,78.60
2023-04-04T18:01:17.249Z,79.40
2023-04-04T18:03:50.131Z,80.10
2023-04-04T18:06:21.907Z,80.30
2023-04-04T18:08:51.651Z,80.40
2023-04-04T18:11:21.093Z,82.20
2023-04-04T18:13:50.613Z,81.70
2023-04-04T18:16:21.258Z,81.80
2023-04-04T18:18:50.121Z,82.10
2023-04-04T18:21:19.210Z,82.40
2023-04-04T18:23:47.394Z,82.50
2023-04-04T18:26:16.697Z,83.00
2023-04-04T18:28:45.312Z,83.70
2023-04-04T18:31:14.119Z,83.50
2023-04-04T18:33:44.080Z,84.40
2023-04-04T18:36:13.129Z,84.60
2023-04-04T18:38:42.370Z,84.90
2023-04-04T18:41:11.028Z,85.30
2023-04-04T18:43:40.015Z,85.90
2023-04-04T18:46:09.319Z,85.90
2023-04-04T18:48:38.782Z,86.00
2023-04-04T18:51:09.308Z,86.10
2023-04-04T18:53:38.306Z,87.00
2023-04-04T18:56:06.887Z,87.50
2023-04-04T18:58:36.005Z,88.20
2023-04-04T19:01:05.464Z,88.20
2023-04-04T19:03:43.486Z,88.40
2023-04-04T19:06:14.320Z,88.60
2023-04-04T19:13:08.747Z,89.10
2023-04-04T19:15:37.704Z,89.30
2023-04-04T19:18:06.831Z,90.00
2023-04-04T19:20:35.489Z,90.10
2023-04-04T19:23:05.571Z,90.50
2023-04-04T19:25:35.693Z,90.50
2023-04-04T19:28:04.905Z,90.90
2023-04-04T19:30:44.200Z,91.00
2023-04-04T19:33:15.314Z,91.20
2023-04-04T19:35:59.070Z,91.50
2023-04-04T19:38:32.726Z,91.40
2023-04-04T19:41:04.956Z,91.90
2023-04-04T19:43:34.130Z,92.20
2023-04-04T19:46:10.867Z,92.30
2023-04-04T19:48:45.066Z,92.60
2023-04-04T19:51:40.356Z,93.30
2023-04-04T19:54:16.442Z,93.60
2023-04-04T19:56:48.115Z,94.00
2023-04-04T20:00:05.477Z,94.80
2023-04-04T20:02:54.163Z,95.10
2023-04-04T20:06:01.179Z,95.20
2023-04-04T20:08:48.984Z,95.60
2023-04-04T20:11:30.493Z,95.30
2023-04-04T20:14:04.222Z,95.00
2023-04-04T20:16:34.090Z,95.30
2023-04-04T20:19:08.223Z,95.80
2023-04-04T20:21:37.903Z,95.90
2023-04-04T20:24:09.437Z,96.60
2023-04-04T20:26:54.763Z,97.10
2023-04-04T20:29:26.792Z,97.60
2023-04-04T20:31:58.095Z,98.00
2023-04-04T20:34:42.915Z,98.40
2023-04-04T20:37:16.521Z,98.60
2023-04-04T20:39:54.178Z,98.80
2023-04-04T20:42:40.805Z,99.20
2023-04-04T20:45:39.321Z,99.20
2023-04-04T20:48:08.793Z,99.40
2023-04-04T20:50:46.336Z,99.80
2023-04-04T20:53:22.057Z,99.70
2023-04-04T20:55:52.044Z,99.60
2023-04-04T20:58:40.421Z,99.60
2023-04-04T21:01:12.452Z,99.80
2023-04-04T21:03:40.975Z,99.50
2023-04-04T21:06:14.445Z,99.50
2023-04-04T21:08:47.389Z,99.30
2023-04-04T21:11:29.094Z,99.20
2023-04-04T21:13:59.148Z,98.60
2023-04-04T21:16:29.582Z,98.40
2023-04-04T21:19:01.515Z,98.40
2023-04-04T21:21:32.070Z,98.50
2023-04-04T21:24:02.194Z,98.40
2023-04-04T21:26:35.702Z,98.20
2023-04-04T21:29:08.543Z,98.20
2023-04-04T21:31:41.443Z,98.00
2023-04-04T21:34:17.026Z,98.40
2023-04-04T21:36:47.349Z,98.30
2023-04-04T21:39:22.639Z,98.30
2023-04-04T21:41:54.830Z,98.40
2023-04-04T21:44:26.345Z,98.80
2023-04-04T21:46:55.926Z,98.30
2023-04-04T21:49:25.399Z,98.30
2023-04-04T21:51:53.864Z,98.40
2023-04-04T21:54:22.433Z,98.40
2023-04-04T21:56:51.206Z,98.50
2023-04-04T21:59:20.752Z,98.70
2023-04-04T22:01:52.713Z,98.80
2023-04-04T22:04:22.083Z,98.80
2023-04-04T22:06:51.131Z,98.80
2023-04-04T22:09:22.734Z,99.10
2023-04-04T22:11:54.053Z,99.20
2023-04-04T22:14:23.059Z,99.30
2023-04-04T22:16:53.679Z,99.50
2023-04-04T22:19:23.713Z,99.20
2023-04-04T22:21:54.021Z,99.20
2023-04-04T22:24:23.496Z,99.20
2023-04-04T22:26:51.890Z,99.40
2023-04-04T22:29:20.676Z,99.60
2023-04-04T22:31:49.143Z,99.90
2023-04-04T22:34:18.914Z,99.90
2023-04-04T22:36:47.164Z,99.90
2023-04-04T22:39:16.343Z,99.90
2023-04-04T22:41:45.608Z,99.90
2023-04-04T22:44:14.002Z,99.90
2023-04-04T22:46:42.397Z,99.90
2023-04-04T22:49:10.925Z,99.90
2023-04-04T22:51:45.664Z,99.90
2023-04-04T22:54:16.612Z,99.90
2023-04-04T22:56:45.564Z,99.90
2023-04-04T22:59:14.188Z,99.90
2023-04-04T23:01:42.789Z,99.90
2023-04-04T23:04:11.528Z,99.90
2023-04-04T23:06:41.402Z,99.90
2023-04-04T23:09:09.772Z,99.90
2023-04-04T23:11:39.851Z,99.90
2023-04-04T23:14:09.597Z,99.90
2023-04-04T23:16:40.324Z,99.90
2023-04-04T23:19:08.859Z,99.90
2023-04-04T23:21:38.131Z,99.90
2023-04-04T23:24:08.887Z,99.90
2023-04-04T23:26:37.772Z,99.90
2023-04-04T23:29:06.845Z,99.90
2023-04-04T23:31:36.770Z,99.90
2023-04-04T23:34:05.560Z,99.90
2023-04-04T23:36:34.334Z,99.90
2023-04-04T23:39:04.035Z,99.90
2023-04-04T23:41:34.055Z,99.90
2023-04-04T23:44:02.608Z,99.90
2023-04-04T23:46:32.716Z,99.90
2023-04-04T23:49:02.012Z,99.90
2023-04-04T23:51:38.085Z,99.90
2023-04-04T23:54:08.210Z,99.90
2023-04-04T23:56:38.637Z,99.90
2023-04-04T23:59:13.316Z,99.90
